sensor_id;sensor_type;location;lat;lon;timestamp;temperature;humidity
16064;DHT22;8136;53.172;8.256;2023-12-20T08:40:16;7.30;99.90
16064;DHT22;8136;53.172;8.256;2023-12-20T08:43:00;7.30;99.90
16064;DHT22;8136;53.172;8.256;2023-12-20T08:45:38;7.30;99.90
16064;DHT22;8136;53.172;8.256;2023-12-20T08:48:06;7.30;99.90
16064;DHT22;8136;53.172;8.256;2023-12-20T08:50:33;7.30;99.90
16064;DHT22;8136;53.172;8.256;2023-12-20T08:53:00;7.20;99.90
16064;DHT22;8136;53.172;8.256;2023-12-20T08:55:28;7.20;99.90
16064;DHT22;8136;53.172;8.256;2023-12-20T08:57:56;7.20;99.90
16064;DHT22;8136;53.172;8.256;2023-12-20T09:00:23;7.20;99.90
16064;DHT22;8136;53.172;8.256;2023-12-20T09:02:53;7.20;99.90
16064;DHT22;8136;53.172;8.256;2023-12-20T09:05:20;7.20;99.90
16064;DHT22;8136;53.172;8.256;2023-12-20T09:07:47;7.20;99.90
16064;DHT22;8136;53.172;8.256;2023-12-20T09:10:14;7.10;99.90
16064;DHT22;8136;53.172;8.256;2023-12-20T09:12:42;7.20;99.90
16064;DHT22;8136;53.172;8.256;2023-12-20T09:15:09;7.20;99.90
16064;DHT22;8136;53.172;8.256;2023-12-20T09:17:36;7.20;99.90
16064;DHT22;8136;53.172;8.256;2023-12-20T09:20:03;7.20;99.90
16064;DHT22;8136;53.172;8.256;2023-12-20T09:22:32;7.10;99.90
16064;DHT22;8136;53.172;8.256;2023-12-20T09:24:59;6.90;99.90
16064;DHT22;8136;53.172;8.256;2023-12-20T09:27:27;6.70;99.90
16064;DHT22;8136;53.172;8.256;2023-12-20T09:29:55;6.50;99.90
16064;DHT22;8136;53.172;8.256;2023-12-20T09:32:22;6.30;99.90
16064;DHT22;8136;53.172;8.256;2023-12-20T09:34:49;6.20;99.90
16064;DHT22;8136;53.172;8.256;2023-12-20T09:37:16;6.10;99.90
16064;DHT22;8136;53.172;8.256;2023-12-20T09:39:43;6.00;99.90
16064;DHT22;8136;53.172;8.256;2023-12-20T09:42:11;6.00;99.90
16064;DHT22;8136;53.172;8.256;2023-12-20T09:44:39;5.90;99.90
16064;DHT22;8136;53.172;8.256;2023-12-20T09:47:09;5.90;99.90
16064;DHT22;8136;53.172;8.256;2023-12-20T09:49:36;5.90;99.90
16064;DHT22;8136;53.172;8.256;2023-12-20T09:52:05;5.80;99.90
16064;DHT22;8136;53.172;8.256;2023-12-20T09:54:34;5.80;99.90
16064;DHT22;8136;53.172;8.256;2023-12-20T09:57:01;5.80;99.90
16064;DHT22;8136;53.172;8.256;2023-12-20T09:59:29;5.90;99.90
16064;DHT22;8136;53.172;8.256;2023-12-20T10:02:06;5.80;99.90
16064;DHT22;8136;53.172;8.256;2023-12-20T10:04:37;5.90;99.90
16064;DHT22;8136;53.172;8.256;2023-12-20T10:07:06;5.90;99.90
16064;DHT22;8136;53.172;8.256;2023-12-20T10:09:34;5.90;99.90
16064;DHT22;8136;53.172;8.256;2023-12-20T10:12:01;5.90;99.90
16064;DHT22;8136;53.172;8.256;2023-12-20T10:14:35;6.00;99.90
16064;DHT22;8136;53.172;8.256;2023-12-20T10:17:19;6.00;99.90
16064;DHT22;8136;53.172;8.256;2023-12-20T10:24:22;6.10;99.90
16064;DHT22;8136;53.172;8.256;2023-12-20T10:27:11;6.10;99.90
16064;DHT22;8136;53.172;8.256;2023-12-20T10:29:44;6.20;99.90
16064;DHT22;8136;53.172;8.256;2023-12-20T10:32:30;6.20;99.90
16064;DHT22;8136;53.172;8.256;2023-12-20T10:34:59;6.20;99.90
16064;DHT22;8136;53.172;8.256;2023-12-20T10:37:26;6.20;99.90
16064;DHT22;8136;53.172;8.256;2023-12-20T10:39:54;6.30;99.90
16064;DHT22;8136;53.172;8.256;2023-12-20T10:42:26;6.40;99.90
16064;DHT22;8136;53.172;8.256;2023-12-20T10:44:53;6.50;99.90
16064;DHT22;8136;53.172;8.256;2023-12-20T10:47:20;6.70;99.90
16064;DHT22;8136;53.172;8.256;2023-12-20T10:49:49;6.90;99.90
16064;DHT22;8136;53.172;8.256;2023-12-20T10:52:18;6.90;99.90
16064;DHT22;8136;53.172;8.256;2023-12-20T10:54:46;6.90;99.90
16064;DHT22;8136;53.172;8.256;2023-12-20T11:00:44;7.00;99.90
16064;DHT22;8136;53.172;8.256;2023-12-20T12:20:20;8.70;99.90
16064;DHT22;8136;53.172;8.256;2023-12-20T12:22:57;8.80;99.90
16064;DHT22;8136;53.172;8.256;2023-12-20T12:25:25;8.70;99.90
16064;DHT22;8136;53.172;8.256;2023-12-20T12:27:59;8.70;99.90
16064;DHT22;8136;53.172;8.256;2023-12-20T12:50:25;7.60;99.90
16064;DHT22;8136;53.172;8.256;2023-12-20T12:52:54;7.50;99.90
16064;DHT22;8136;53.172;8.256;2023-12-20T12:55:21;7.40;99.90
16064;DHT22;8136;53.172;8.256;2023-12-20T12:57:47;7.40;99.90
16064;DHT22;8136;53.172;8.256;2023-12-20T13:00:15;7.40;99.90
16064;DHT22;8136;53.172;8.256;2023-12-20T13:02:42;7.50;99.90
16064;DHT22;8136;53.172;8.256;2023-12-20T13:05:09;7.60;99.90
16064;DHT22;8136;53.172;8.256;2023-12-20T13:07:37;7.70;99.90
16064;DHT22;8136;53.172;8.256;2023-12-20T13:10:05;7.80;99.90
16064;DHT22;8136;53.172;8.256;2023-12-20T13:12:36;7.90;99.90
16064;DHT22;8136;53.172;8.256;2023-12-20T13:15:04;8.00;99.90
16064;DHT22;8136;53.172;8.256;2023-12-20T13:17:31;7.90;99.90
16064;DHT22;8136;53.172;8.256;2023-12-20T13:19:58;8.00;99.90
16064;DHT22;8136;53.172;8.256;2023-12-20T13:22:25;8.00;99.90
16064;DHT22;8136;53.172;8.256;2023-12-20T13:24:53;8.00;99.90
16064;DHT22;8136;53.172;8.256;2023-12-20T13:27:20;8.00;99.90
16064;DHT22;8136;53.172;8.256;2023-12-20T13:29:47;8.00;99.90
16064;DHT22;8136;53.172;8.256;2023-12-20T13:32:14;8.00;99.90
16064;DHT22;8136;53.172;8.256;2023-12-20T13:34:41;8.00;99.90
16064;DHT22;8136;53.172;8.256;2023-12-20T13:37:08;8.00;99.90
16064;DHT22;8136;53.172;8.256;2023-12-20T13:39:35;7.90;99.90
16064;DHT22;8136;53.172;8.256;2023-12-20T13:42:03;7.90;99.90
16064;DHT22;8136;53.172;8.256;2023-12-20T13:44:30;7.90;99.90
16064;DHT22;8136;53.172;8.256;2023-12-20T13:47:11;7.80;99.90
16064;DHT22;8136;53.172;8.256;2023-12-20T13:50:07;7.70;99.90
16064;DHT22;8136;53.172;8.256;2023-12-20T13:52:35;7.70;99.90
16064;DHT22;8136;53.172;8.256;2023-12-20T13:55:02;7.70;99.90
16064;DHT22;8136;53.172;8.256;2023-12-20T13:57:35;7.70;99.90
16064;DHT22;8136;53.172;8.256;2023-12-20T14:00:15;7.70;99.90
16064;DHT22;8136;53.172;8.256;2023-12-20T14:02:42;7.70;99.90
16064;DHT22;8136;53.172;8.256;2023-12-20T14:05:35;7.70;99.90
16064;DHT22;8136;53.172;8.256;2023-12-20T14:08:12;7.70;99.90
16064;DHT22;8136;53.172;8.256;2023-12-20T14:10:38;7.70;99.90
16064;DHT22;8136;53.172;8.256;2023-12-20T14:13:07;7.70;99.90
16064;DHT22;8136;53.172;8.256;2023-12-20T14:15:34;7.70;99.90
16064;DHT22;8136;53.172;8.256;2023-12-20T14:18:04;7.60;99.90
16064;DHT22;8136;53.172;8.256;2023-12-20T14:20:31;7.60;99.90
16064;DHT22;8136;53.172;8.256;2023-12-20T14:23:00;7.60;99.90
16064;DHT22;8136;53.172;8.256;2023-12-20T14:25:26;7.60;99.90
16064;DHT22;8136;53.172;8.256;2023-12-20T14:27:53;7.60;99.90
16064;DHT22;8136;53.172;8.256;2023-12-20T14:30:22;7.60;99.90
16064;DHT22;8136;53.172;8.256;2023-12-20T14:32:50;7.60;99.90
16064;DHT22;8136;53.172;8.256;2023-12-20T14:35:17;7.60;99.90
16064;DHT22;8136;53.172;8.256;2023-12-20T14:37:45;7.60;99.90
16064;DHT22;8136;53.172;8.256;2023-12-20T14:40:12;7.60;99.90
16064;DHT22;8136;53.172;8.256;2023-12-20T14:42:42;7.70;99.90
16064;DHT22;8136;53.172;8.256;2023-12-20T14:45:08;7.70;99.90
16064;DHT22;8136;53.172;8.256;2023-12-20T14:47:37;7.70;99.90
16064;DHT22;8136;53.172;8.256;2023-12-20T14:50:04;7.70;99.90
16064;DHT22;8136;53.172;8.256;2023-12-20T14:52:32;7.70;99.90
16064;DHT22;8136;53.172;8.256;2023-12-20T14:58:22;7.70;99.90
16064;DHT22;8136;53.172;8.256;2023-12-20T15:00:49;7.70;99.90
16064;DHT22;8136;53.172;8.256;2023-12-20T15:03:17;7.60;99.90
16064;DHT22;8136;53.172;8.256;2023-12-20T15:05:44;7.60;99.90
16064;DHT22;8136;53.172;8.256;2023-12-20T15:08:25;7.60;99.90
16064;DHT22;8136;53.172;8.256;2023-12-20T15:10:53;7.50;99.90
16064;DHT22;8136;53.172;8.256;2023-12-20T15:13:21;7.50;99.90
16064;DHT22;8136;53.172;8.256;2023-12-20T15:15:48;7.50;99.90
16064;DHT22;8136;53.172;8.256;2023-12-20T15:18:16;7.50;99.90
16064;DHT22;8136;53.172;8.256;2023-12-20T15:20:43;7.50;99.90
16064;DHT22;8136;53.172;8.256;2023-12-20T15:23:10;7.40;99.90
16064;DHT22;8136;53.172;8.256;2023-12-20T15:25:43;7.40;99.90
16064;DHT22;8136;53.172;8.256;2023-12-20T15:28:10;7.40;99.90
16064;DHT22;8136;53.172;8.256;2023-12-20T15:30:37;7.30;99.90
16064;DHT22;8136;53.172;8.256;2023-12-20T15:33:04;7.30;99.90
16064;DHT22;8136;53.172;8.256;2023-12-20T15:35:32;7.20;99.90
16064;DHT22;8136;53.172;8.256;2023-12-20T15:37:59;7.20;99.90
16064;DHT22;8136;53.172;8.256;2023-12-20T15:40:26;7.20;99.90
16064;DHT22;8136;53.172;8.256;2023-12-20T15:42:53;7.20;99.90
16064;DHT22;8136;53.172;8.256;2023-12-20T15:45:21;7.20;99.90
16064;DHT22;8136;53.172;8.256;2023-12-20T15:47:48;7.20;99.90
16064;DHT22;8136;53.172;8.256;2023-12-20T15:50:14;7.20;99.90
16064;DHT22;8136;53.172;8.256;2023-12-20T15:52:43;7.20;99.90
16064;DHT22;8136;53.172;8.256;2023-12-20T15:55:10;7.20;99.90
16064;DHT22;8136;53.172;8.256;2023-12-20T15:57:37;7.20;99.90
16064;DHT22;8136;53.172;8.256;2023-12-20T16:00:06;7.20;99.90
16064;DHT22;8136;53.172;8.256;2023-12-20T16:02:34;7.20;99.90
16064;DHT22;8136;53.172;8.256;2023-12-20T16:05:01;7.20;99.90
16064;DHT22;8136;53.172;8.256;2023-12-20T17:36:14;6.90;99.90
16064;DHT22;8136;53.172;8.256;2023-12-20T17:47:15;6.90;99.90
16064;DHT22;8136;53.172;8.256;2023-12-20T17:50:00;6.90;99.90
16064;DHT22;8136;53.172;8.256;2023-12-20T17:52:28;6.90;99.90
16064;DHT22;8136;53.172;8.256;2023-12-20T17:54:55;6.80;99.90
16064;DHT22;8136;53.172;8.256;2023-12-20T17:57:22;6.90;99.90
16064;DHT22;8136;53.172;8.256;2023-12-20T17:59:49;6.90;99.90
16064;DHT22;8136;53.172;8.256;2023-12-20T18:02:17;6.80;99.90
16064;DHT22;8136;53.172;8.256;2023-12-20T18:04:44;6.80;99.90
16064;DHT22;8136;53.172;8.256;2023-12-20T18:07:12;6.90;99.90
16064;DHT22;8136;53.172;8.256;2023-12-20T18:09:40;6.90;99.90
16064;DHT22;8136;53.172;8.256;2023-12-20T18:12:07;6.80;99.90
16064;DHT22;8136;53.172;8.256;2023-12-20T18:14:36;6.80;99.90
16064;DHT22;8136;53.172;8.256;2023-12-20T18:17:03;6.90;99.90
16064;DHT22;8136;53.172;8.256;2023-12-20T18:19:30;6.90;99.90
16064;DHT22;8136;53.172;8.256;2023-12-20T18:21:57;6.90;99.90
16064;DHT22;8136;53.172;8.256;2023-12-20T18:31:09;6.90;99.90
16064;DHT22;8136;53.172;8.256;2023-12-20T18:34:10;6.90;99.90
16064;DHT22;8136;53.172;8.256;2023-12-20T18:36:52;6.90;99.90
16064;DHT22;8136;53.172;8.256;2023-12-20T18:42:44;6.90;99.90
16064;DHT22;8136;53.172;8.256;2023-12-20T19:18:30;7.10;99.90
16064;DHT22;8136;53.172;8.256;2023-12-20T19:21:11;7.10;99.90
16064;DHT22;8136;53.172;8.256;2023-12-20T19:27:23;7.20;99.90
16064;DHT22;8136;53.172;8.256;2023-12-20T19:29:50;7.20;99.90
16064;DHT22;8136;53.172;8.256;2023-12-20T19:32:23;7.30;99.90
16064;DHT22;8136;53.172;8.256;2023-12-20T19:34:51;7.30;99.90
16064;DHT22;8136;53.172;8.256;2023-12-20T19:37:18;7.40;99.90
16064;DHT22;8136;53.172;8.256;2023-12-20T19:39:45;7.40;99.90
16064;DHT22;8136;53.172;8.256;2023-12-20T19:42:12;7.50;99.90
16064;DHT22;8136;53.172;8.256;2023-12-20T19:44:39;7.50;99.90
16064;DHT22;8136;53.172;8.256;2023-12-20T19:47:06;7.50;99.90
16064;DHT22;8136;53.172;8.256;2023-12-20T19:49:34;7.60;99.90
16064;DHT22;8136;53.172;8.256;2023-12-20T19:52:02;7.60;99.90
16064;DHT22;8136;53.172;8.256;2023-12-20T19:54:30;7.60;99.90
16064;DHT22;8136;53.172;8.256;2023-12-20T19:56:57;7.60;99.90
16064;DHT22;8136;53.172;8.256;2023-12-20T19:59:34;7.60;99.90
16064;DHT22;8136;53.172;8.256;2023-12-20T20:02:34;7.60;99.90
16064;DHT22;8136;53.172;8.256;2023-12-20T20:05:14;7.70;99.90
16064;DHT22;8136;53.172;8.256;2023-12-20T20:07:43;7.70;99.90
16064;DHT22;8136;53.172;8.256;2023-12-20T20:10:10;7.70;99.90
16064;DHT22;8136;53.172;8.256;2023-12-20T20:12:37;7.70;99.90
16064;DHT22;8136;53.172;8.256;2023-12-20T20:15:05;7.80;99.90
16064;DHT22;8136;53.172;8.256;2023-12-20T20:17:33;7.80;99.90
16064;DHT22;8136;53.172;8.256;2023-12-20T20:19:59;7.80;99.90
16064;DHT22;8136;53.172;8.256;2023-12-20T20:22:27;7.90;99.90
16064;DHT22;8136;53.172;8.256;2023-12-20T20:25:00;7.90;99.90
16064;DHT22;8136;53.172;8.256;2023-12-20T20:27:32;7.90;99.90
16064;DHT22;8136;53.172;8.256;2023-12-20T20:30:13;8.00;99.90
16064;DHT22;8136;53.172;8.256;2023-12-20T20:32:41;8.00;99.90
16064;DHT22;8136;53.172;8.256;2023-12-20T20:35:10;8.00;99.90
16064;DHT22;8136;53.172;8.256;2023-12-20T20:37:53;8.00;99.90
16064;DHT22;8136;53.172;8.256;2023-12-20T20:40:51;8.10;99.90
16064;DHT22;8136;53.172;8.256;2023-12-20T20:43:59;8.10;99.90
16064;DHT22;8136;53.172;8.256;2023-12-20T20:47:25;8.10;99.90
16064;DHT22;8136;53.172;8.256;2023-12-20T20:50:51;8.10;99.90
16064;DHT22;8136;53.172;8.256;2023-12-20T21:21:30;8.40;99.90
16064;DHT22;8136;53.172;8.256;2023-12-20T21:41:09;8.60;99.90
16064;DHT22;8136;53.172;8.256;2023-12-20T21:43:36;8.60;99.90
16064;DHT22;8136;53.172;8.256;2023-12-20T21:46:03;8.60;99.90
16064;DHT22;8136;53.172;8.256;2023-12-20T21:48:31;8.60;99.90
16064;DHT22;8136;53.172;8.256;2023-12-20T21:50:58;8.60;99.90
16064;DHT22;8136;53.172;8.256;2023-12-20T21:53:25;8.60;99.90
16064;DHT22;8136;53.172;8.256;2023-12-20T21:55:52;8.70;99.90
16064;DHT22;8136;53.172;8.256;2023-12-20T21:58:23;8.70;99.90
16064;DHT22;8136;53.172;8.256;2023-12-20T22:00:58;8.70;99.90
16064;DHT22;8136;53.172;8.256;2023-12-20T22:03:45;8.70;99.90
16064;DHT22;8136;53.172;8.256;2023-12-20T22:06:33;8.80;99.90
16064;DHT22;8136;53.172;8.256;2023-12-20T22:09:00;8.80;99.90
16064;DHT22;8136;53.172;8.256;2023-12-20T22:11:30;8.80;99.90
16064;DHT22;8136;53.172;8.256;2023-12-20T22:14:01;8.80;99.90
16064;DHT22;8136;53.172;8.256;2023-12-20T22:16:36;8.80;99.90
16064;DHT22;8136;53.172;8.256;2023-12-20T22:19:08;8.80;99.90
16064;DHT22;8136;53.172;8.256;2023-12-20T22:21:42;8.90;99.90
16064;DHT22;8136;53.172;8.256;2023-12-20T22:24:12;8.90;99.90
16064;DHT22;8136;53.172;8.256;2023-12-20T22:26:47;8.90;99.90
16064;DHT22;8136;53.172;8.256;2023-12-20T22:32:24;8.90;99.90
16064;DHT22;8136;53.172;8.256;2023-12-20T22:34:56;9.00;99.90
16064;DHT22;8136;53.172;8.256;2023-12-20T22:37:36;9.00;99.90
16064;DHT22;8136;53.172;8.256;2023-12-20T22:40:07;9.00;99.90
16064;DHT22;8136;53.172;8.256;2023-12-20T22:42:37;9.00;99.90
16064;DHT22;8136;53.172;8.256;2023-12-20T22:48:18;9.10;99.90
16064;DHT22;8136;53.172;8.256;2023-12-20T22:50:53;9.10;99.90
16064;DHT22;8136;53.172;8.256;2023-12-20T22:53:24;9.10;99.90
16064;DHT22;8136;53.172;8.256;2023-12-20T22:55:51;9.10;99.90
16064;DHT22;8136;53.172;8.256;2023-12-20T22:58:18;9.20;99.90
16064;DHT22;8136;53.172;8.256;2023-12-20T23:00:47;9.20;99.90
16064;DHT22;8136;53.172;8.256;2023-12-20T23:03:14;9.20;99.90
16064;DHT22;8136;53.172;8.256;2023-12-20T23:05:41;9.20;99.90
16064;DHT22;8136;53.172;8.256;2023-12-20T23:08:10;9.20;99.90
16064;DHT22;8136;53.172;8.256;2023-12-20T23:10:37;9.20;99.90
16064;DHT22;8136;53.172;8.256;2023-12-20T23:13:04;9.20;99.90
16064;DHT22;8136;53.172;8.256;2023-12-20T23:15:31;9.20;99.90
16064;DHT22;8136;53.172;8.256;2023-12-20T23:17:59;9.20;99.90
16064;DHT22;8136;53.172;8.256;2023-12-20T23:20:26;9.20;99.90
16064;DHT22;8136;53.172;8.256;2023-12-20T23:22:53;9.30;99.90
16064;DHT22;8136;53.172;8.256;2023-12-20T23:25:20;9.20;99.90
16064;DHT22;8136;53.172;8.256;2023-12-20T23:27:48;9.20;99.90
16064;DHT22;8136;53.172;8.256;2023-12-20T23:30:33;9.30;99.90
16064;DHT22;8136;53.172;8.256;2023-12-20T23:33:08;9.30;99.90
16064;DHT22;8136;53.172;8.256;2023-12-20T23:35:37;9.30;99.90
16064;DHT22;8136;53.172;8.256;2023-12-20T23:38:09;9.30;99.90
16064;DHT22;8136;53.172;8.256;2023-12-20T23:40:44;9.30;99.90
16064;DHT22;8136;53.172;8.256;2023-12-20T23:43:14;9.30;99.90
